sensor_id;sensor_type;location;lat;lon;timestamp;P1;durP1;ratioP1;P2;durP2;ratioP2
7426;SDS011;3755;59.316;18.092;2024-03-08T00:00:30;4.40;;;1.90;;
7426;SDS011;3755;59.316;18.092;2024-03-08T00:02:58;3.70;;;1.90;;
7426;SDS011;3755;59.316;18.092;2024-03-08T00:05:29;2.43;;;2.17;;
7426;SDS011;3755;59.316;18.092;2024-03-08T00:07:56;3.40;;;1.90;;
7426;SDS011;3755;59.316;18.092;2024-03-08T00:10:25;2.47;;;1.80;;
7426;SDS011;3755;59.316;18.092;2024-03-08T00:12:54;4.03;;;2.00;;
7426;SDS011;3755;59.316;18.092;2024-03-08T00:15:22;4.93;;;2.00;;
7426;SDS011;3755;59.316;18.092;2024-03-08T00:17:49;3.30;;;1.60;;
7426;SDS011;3755;59.316;18.092;2024-03-08T00:20:17;4.30;;;1.80;;
7426;SDS011;3755;59.316;18.092;2024-03-08T00:22:45;5.90;;;1.97;;
7426;SDS011;3755;59.316;18.092;2024-03-08T00:25:12;4.23;;;2.20;;
7426;SDS011;3755;59.316;18.092;2024-03-08T00:27:40;6.10;;;1.93;;
7426;SDS011;3755;59.316;18.092;2024-03-08T00:30:07;2.87;;;1.60;;
7426;SDS011;3755;59.316;18.092;2024-03-08T00:32:36;5.13;;;1.83;;
7426;SDS011;3755;59.316;18.092;2024-03-08T00:35:03;3.33;;;1.80;;
7426;SDS011;3755;59.316;18.092;2024-03-08T00:37:32;2.47;;;1.50;;
7426;SDS011;3755;59.316;18.092;2024-03-08T00:40:01;3.13;;;1.60;;
7426;SDS011;3755;59.316;18.092;2024-03-08T00:42:28;3.17;;;1.43;;
7426;SDS011;3755;59.316;18.092;2024-03-08T00:44:55;2.83;;;1.53;;
7426;SDS011;3755;59.316;18.092;2024-03-08T00:47:23;1.90;;;1.50;;
7426;SDS011;3755;59.316;18.092;2024-03-08T00:49:50;2.03;;;1.60;;
7426;SDS011;3755;59.316;18.092;2024-03-08T00:52:18;2.77;;;1.40;;
7426;SDS011;3755;59.316;18.092;2024-03-08T00:54:45;3.17;;;1.43;;
7426;SDS011;3755;59.316;18.092;2024-03-08T00:57:13;1.60;;;1.10;;
7426;SDS011;3755;59.316;18.092;2024-03-08T00:59:40;3.30;;;1.57;;
7426;SDS011;3755;59.316;18.092;2024-03-08T01:02:08;2.30;;;1.37;;
7426;SDS011;3755;59.316;18.092;2024-03-08T01:04:36;2.67;;;1.57;;
7426;SDS011;3755;59.316;18.092;2024-03-08T01:07:03;3.67;;;1.50;;
7426;SDS011;3755;59.316;18.092;2024-03-08T01:09:31;2.50;;;1.47;;
7426;SDS011;3755;59.316;18.092;2024-03-08T01:11:58;2.60;;;1.33;;
7426;SDS011;3755;59.316;18.092;2024-03-08T01:14:27;2.77;;;1.60;;
7426;SDS011;3755;59.316;18.092;2024-03-08T01:16:56;2.27;;;1.57;;
7426;SDS011;3755;59.316;18.092;2024-03-08T01:19:22;2.27;;;1.30;;
7426;SDS011;3755;59.316;18.092;2024-03-08T01:21:50;4.50;;;1.60;;
7426;SDS011;3755;59.316;18.092;2024-03-08T01:24:17;4.97;;;1.60;;
7426;SDS011;3755;59.316;18.092;2024-03-08T01:26:44;3.93;;;1.60;;
7426;SDS011;3755;59.316;18.092;2024-03-08T01:29:12;5.20;;;1.67;;
7426;SDS011;3755;59.316;18.092;2024-03-08T01:31:40;4.43;;;1.87;;
7426;SDS011;3755;59.316;18.092;2024-03-08T01:34:07;5.17;;;1.33;;
7426;SDS011;3755;59.316;18.092;2024-03-08T01:36:34;4.90;;;1.73;;
7426;SDS011;3755;59.316;18.092;2024-03-08T01:39:02;2.10;;;1.37;;
7426;SDS011;3755;59.316;18.092;2024-03-08T01:41:33;6.37;;;1.73;;
7426;SDS011;3755;59.316;18.092;2024-03-08T01:44:00;5.37;;;1.80;;
7426;SDS011;3755;59.316;18.092;2024-03-08T01:46:29;2.03;;;1.50;;
7426;SDS011;3755;59.316;18.092;2024-03-08T01:49:01;3.67;;;1.63;;
7426;SDS011;3755;59.316;18.092;2024-03-08T01:51:29;3.87;;;1.47;;
7426;SDS011;3755;59.316;18.092;2024-03-08T01:53:57;1.67;;;1.20;;
7426;SDS011;3755;59.316;18.092;2024-03-08T01:56:24;2.73;;;1.83;;
7426;SDS011;3755;59.316;18.092;2024-03-08T01:58:51;2.37;;;1.60;;
7426;SDS011;3755;59.316;18.092;2024-03-08T02:01:19;2.67;;;1.30;;
7426;SDS011;3755;59.316;18.092;2024-03-08T02:03:46;4.27;;;1.40;;
7426;SDS011;3755;59.316;18.092;2024-03-08T02:06:14;1.97;;;1.40;;
7426;SDS011;3755;59.316;18.092;2024-03-08T02:08:42;3.03;;;1.93;;
7426;SDS011;3755;59.316;18.092;2024-03-08T02:11:10;2.57;;;1.50;;
7426;SDS011;3755;59.316;18.092;2024-03-08T02:13:38;2.50;;;1.53;;
7426;SDS011;3755;59.316;18.092;2024-03-08T02:16:06;2.90;;;1.60;;
7426;SDS011;3755;59.316;18.092;2024-03-08T02:18:33;7.07;;;2.37;;
7426;SDS011;3755;59.316;18.092;2024-03-08T02:21:03;4.33;;;1.60;;
7426;SDS011;3755;59.316;18.092;2024-03-08T02:23:31;3.83;;;2.17;;
7426;SDS011;3755;59.316;18.092;2024-03-08T02:25:58;1.60;;;1.20;;
7426;SDS011;3755;59.316;18.092;2024-03-08T02:28:25;2.60;;;1.43;;
7426;SDS011;3755;59.316;18.092;2024-03-08T02:30:53;2.93;;;2.00;;
7426;SDS011;3755;59.316;18.092;2024-03-08T02:33:21;2.37;;;1.57;;
7426;SDS011;3755;59.316;18.092;2024-03-08T02:35:49;2.90;;;1.60;;
7426;SDS011;3755;59.316;18.092;2024-03-08T02:38:18;5.87;;;1.80;;
7426;SDS011;3755;59.316;18.092;2024-03-08T02:40:47;6.93;;;2.30;;
7426;SDS011;3755;59.316;18.092;2024-03-08T02:43:15;3.17;;;1.80;;
7426;SDS011;3755;59.316;18.092;2024-03-08T02:45:42;2.13;;;1.43;;
7426;SDS011;3755;59.316;18.092;2024-03-08T02:48:10;4.67;;;1.87;;
7426;SDS011;3755;59.316;18.092;2024-03-08T02:50:38;9.23;;;2.10;;
7426;SDS011;3755;59.316;18.092;2024-03-08T02:53:07;2.67;;;1.87;;
7426;SDS011;3755;59.316;18.092;2024-03-08T02:55:36;3.77;;;1.73;;
7426;SDS011;3755;59.316;18.092;2024-03-08T02:58:04;3.73;;;1.57;;
7426;SDS011;3755;59.316;18.092;2024-03-08T03:00:33;2.53;;;1.57;;
7426;SDS011;3755;59.316;18.092;2024-03-08T03:03:00;2.00;;;1.40;;
7426;SDS011;3755;59.316;18.092;2024-03-08T03:05:28;2.97;;;1.90;;
7426;SDS011;3755;59.316;18.092;2024-03-08T03:07:56;2.70;;;1.80;;
7426;SDS011;3755;59.316;18.092;2024-03-08T03:10:23;2.93;;;2.03;;
7426;SDS011;3755;59.316;18.092;2024-03-08T03:12:52;3.30;;;1.70;;
7426;SDS011;3755;59.316;18.092;2024-03-08T03:15:20;3.60;;;1.70;;
7426;SDS011;3755;59.316;18.092;2024-03-08T03:17:47;7.53;;;2.40;;
7426;SDS011;3755;59.316;18.092;2024-03-08T03:20:16;2.63;;;1.93;;
7426;SDS011;3755;59.316;18.092;2024-03-08T03:22:48;4.30;;;2.20;;
7426;SDS011;3755;59.316;18.092;2024-03-08T03:25:18;2.97;;;1.80;;
7426;SDS011;3755;59.316;18.092;2024-03-08T03:27:51;5.20;;;1.83;;
7426;SDS011;3755;59.316;18.092;2024-03-08T03:30:21;3.47;;;1.90;;
7426;SDS011;3755;59.316;18.092;2024-03-08T03:32:48;3.97;;;1.60;;
7426;SDS011;3755;59.316;18.092;2024-03-08T03:35:16;3.10;;;2.03;;
7426;SDS011;3755;59.316;18.092;2024-03-08T03:37:43;4.00;;;2.07;;
7426;SDS011;3755;59.316;18.092;2024-03-08T03:40:16;2.63;;;1.60;;
7426;SDS011;3755;59.316;18.092;2024-03-08T03:42:44;3.53;;;1.93;;
7426;SDS011;3755;59.316;18.092;2024-03-08T03:45:13;5.40;;;1.60;;
7426;SDS011;3755;59.316;18.092;2024-03-08T03:47:45;3.47;;;2.13;;
7426;SDS011;3755;59.316;18.092;2024-03-08T03:50:12;4.10;;;2.03;;
7426;SDS011;3755;59.316;18.092;2024-03-08T03:52:39;4.73;;;2.07;;
7426;SDS011;3755;59.316;18.092;2024-03-08T03:55:07;2.77;;;1.67;;
7426;SDS011;3755;59.316;18.092;2024-03-08T03:57:37;2.73;;;1.70;;
7426;SDS011;3755;59.316;18.092;2024-03-08T04:00:05;2.80;;;2.17;;
7426;SDS011;3755;59.316;18.092;2024-03-08T04:02:36;2.93;;;2.13;;
7426;SDS011;3755;59.316;18.092;2024-03-08T04:05:04;5.00;;;1.97;;
7426;SDS011;3755;59.316;18.092;2024-03-08T04:07:32;2.87;;;2.27;;
7426;SDS011;3755;59.316;18.092;2024-03-08T04:09:59;3.23;;;1.70;;
7426;SDS011;3755;59.316;18.092;2024-03-08T04:12:26;2.63;;;1.87;;
7426;SDS011;3755;59.316;18.092;2024-03-08T04:14:55;3.10;;;2.00;;
7426;SDS011;3755;59.316;18.092;2024-03-08T04:17:22;4.43;;;1.97;;
7426;SDS011;3755;59.316;18.092;2024-03-08T04:19:52;7.60;;;2.07;;
7426;SDS011;3755;59.316;18.092;2024-03-08T04:22:19;4.77;;;2.00;;
7426;SDS011;3755;59.316;18.092;2024-03-08T04:24:47;3.20;;;2.13;;
7426;SDS011;3755;59.316;18.092;2024-03-08T04:27:14;2.93;;;2.20;;
7426;SDS011;3755;59.316;18.092;2024-03-08T04:29:41;2.77;;;2.00;;
7426;SDS011;3755;59.316;18.092;2024-03-08T04:32:09;2.63;;;1.90;;
7426;SDS011;3755;59.316;18.092;2024-03-08T04:34:38;4.97;;;1.83;;
7426;SDS011;3755;59.316;18.092;2024-03-08T04:37:07;2.87;;;2.00;;
7426;SDS011;3755;59.316;18.092;2024-03-08T04:39:36;4.53;;;2.17;;
7426;SDS011;3755;59.316;18.092;2024-03-08T04:42:03;4.97;;;2.17;;
7426;SDS011;3755;59.316;18.092;2024-03-08T04:44:35;6.50;;;2.50;;
7426;SDS011;3755;59.316;18.092;2024-03-08T04:47:02;5.03;;;2.70;;
7426;SDS011;3755;59.316;18.092;2024-03-08T04:49:31;2.93;;;1.63;;
7426;SDS011;3755;59.316;18.092;2024-03-08T04:52:00;3.73;;;1.97;;
7426;SDS011;3755;59.316;18.092;2024-03-08T04:54:29;6.43;;;2.57;;
7426;SDS011;3755;59.316;18.092;2024-03-08T04:56:56;3.00;;;2.00;;
7426;SDS011;3755;59.316;18.092;2024-03-08T04:59:25;3.10;;;2.00;;
7426;SDS011;3755;59.316;18.092;2024-03-08T05:01:52;6.27;;;2.07;;
7426;SDS011;3755;59.316;18.092;2024-03-08T05:04:19;5.97;;;2.47;;
7426;SDS011;3755;59.316;18.092;2024-03-08T05:06:47;4.83;;;2.43;;
7426;SDS011;3755;59.316;18.092;2024-03-08T05:09:14;5.17;;;2.50;;
7426;SDS011;3755;59.316;18.092;2024-03-08T05:11:44;5.07;;;2.20;;
7426;SDS011;3755;59.316;18.092;2024-03-08T05:14:12;5.53;;;2.60;;
7426;SDS011;3755;59.316;18.092;2024-03-08T05:16:41;5.60;;;2.17;;
7426;SDS011;3755;59.316;18.092;2024-03-08T05:19:09;5.83;;;2.73;;
7426;SDS011;3755;59.316;18.092;2024-03-08T05:21:36;8.67;;;2.40;;
7426;SDS011;3755;59.316;18.092;2024-03-08T05:24:03;4.67;;;2.67;;
7426;SDS011;3755;59.316;18.092;2024-03-08T05:26:31;4.23;;;2.90;;
7426;SDS011;3755;59.316;18.092;2024-03-08T05:29:00;7.93;;;2.33;;
7426;SDS011;3755;59.316;18.092;2024-03-08T05:31:27;6.13;;;3.30;;
7426;SDS011;3755;59.316;18.092;2024-03-08T05:33:54;5.10;;;3.13;;
7426;SDS011;3755;59.316;18.092;2024-03-08T05:36:21;5.07;;;2.17;;
7426;SDS011;3755;59.316;18.092;2024-03-08T05:38:48;7.50;;;2.63;;
7426;SDS011;3755;59.316;18.092;2024-03-08T05:41:16;6.80;;;2.70;;
7426;SDS011;3755;59.316;18.092;2024-03-08T05:43:44;6.80;;;2.70;;
7426;SDS011;3755;59.316;18.092;2024-03-08T05:46:14;4.20;;;2.60;;
7426;SDS011;3755;59.316;18.092;2024-03-08T05:48:43;4.40;;;2.53;;
7426;SDS011;3755;59.316;18.092;2024-03-08T05:51:11;7.57;;;2.87;;
7426;SDS011;3755;59.316;18.092;2024-03-08T05:53:38;7.50;;;3.03;;
7426;SDS011;3755;59.316;18.092;2024-03-08T05:56:05;7.93;;;2.73;;
7426;SDS011;3755;59.316;18.092;2024-03-08T05:58:35;14.40;;;3.33;;
7426;SDS011;3755;59.316;18.092;2024-03-08T06:01:02;6.67;;;2.67;;
7426;SDS011;3755;59.316;18.092;2024-03-08T06:07:08;5.97;;;2.93;;
7426;SDS011;3755;59.316;18.092;2024-03-08T06:09:42;7.10;;;2.60;;
7426;SDS011;3755;59.316;18.092;2024-03-08T06:12:25;6.00;;;2.80;;
7426;SDS011;3755;59.316;18.092;2024-03-08T06:14:57;5.53;;;2.90;;
7426;SDS011;3755;59.316;18.092;2024-03-08T06:17:38;5.93;;;2.60;;
7426;SDS011;3755;59.316;18.092;2024-03-08T06:20:07;8.77;;;3.30;;
7426;SDS011;3755;59.316;18.092;2024-03-08T06:29:16;3.83;;;2.50;;
7426;SDS011;3755;59.316;18.092;2024-03-08T06:32:02;5.13;;;2.27;;
7426;SDS011;3755;59.316;18.092;2024-03-08T06:34:48;10.17;;;3.10;;
7426;SDS011;3755;59.316;18.092;2024-03-08T06:37:29;9.13;;;3.20;;
7426;SDS011;3755;59.316;18.092;2024-03-08T06:40:08;6.27;;;3.30;;
7426;SDS011;3755;59.316;18.092;2024-03-08T06:42:51;5.93;;;2.80;;
7426;SDS011;3755;59.316;18.092;2024-03-08T06:58:25;6.43;;;3.03;;
7426;SDS011;3755;59.316;18.092;2024-03-08T07:00:58;6.33;;;3.30;;
7426;SDS011;3755;59.316;18.092;2024-03-08T07:03:39;9.03;;;2.73;;
7426;SDS011;3755;59.316;18.092;2024-03-08T07:06:31;6.93;;;3.63;;
7426;SDS011;3755;59.316;18.092;2024-03-08T07:09:13;5.17;;;2.77;;
7426;SDS011;3755;59.316;18.092;2024-03-08T07:11:56;5.20;;;2.80;;
7426;SDS011;3755;59.316;18.092;2024-03-08T07:24:06;7.90;;;3.30;;
7426;SDS011;3755;59.316;18.092;2024-03-08T07:27:06;9.93;;;3.20;;
7426;SDS011;3755;59.316;18.092;2024-03-08T07:29:53;5.77;;;3.00;;
7426;SDS011;3755;59.316;18.092;2024-03-08T07:32:38;7.13;;;2.77;;
7426;SDS011;3755;59.316;18.092;2024-03-08T07:35:30;9.53;;;3.17;;
7426;SDS011;3755;59.316;18.092;2024-03-08T07:38:11;9.50;;;3.67;;
7426;SDS011;3755;59.316;18.092;2024-03-08T07:50:36;8.00;;;2.87;;
7426;SDS011;3755;59.316;18.092;2024-03-08T07:53:25;9.37;;;2.90;;
7426;SDS011;3755;59.316;18.092;2024-03-08T07:56:41;7.83;;;3.00;;
7426;SDS011;3755;59.316;18.092;2024-03-08T07:59:25;8.07;;;3.37;;
7426;SDS011;3755;59.316;18.092;2024-03-08T08:02:10;10.03;;;3.33;;
7426;SDS011;3755;59.316;18.092;2024-03-08T08:04:51;8.93;;;3.43;;
7426;SDS011;3755;59.316;18.092;2024-03-08T08:10:50;9.43;;;3.83;;
7426;SDS011;3755;59.316;18.092;2024-03-08T08:13:32;8.53;;;3.20;;
7426;SDS011;3755;59.316;18.092;2024-03-08T08:16:23;10.50;;;3.17;;
7426;SDS011;3755;59.316;18.092;2024-03-08T08:19:17;6.80;;;3.13;;
7426;SDS011;3755;59.316;18.092;2024-03-08T08:21:46;6.23;;;3.20;;
7426;SDS011;3755;59.316;18.092;2024-03-08T08:24:27;8.50;;;3.20;;
7426;SDS011;3755;59.316;18.092;2024-03-08T08:36:37;9.63;;;3.00;;
7426;SDS011;3755;59.316;18.092;2024-03-08T08:39:18;15.97;;;3.73;;
7426;SDS011;3755;59.316;18.092;2024-03-08T08:42:01;7.73;;;2.57;;
7426;SDS011;3755;59.316;18.092;2024-03-08T08:44:43;11.47;;;3.60;;
7426;SDS011;3755;59.316;18.092;2024-03-08T08:47:25;9.37;;;3.03;;
7426;SDS011;3755;59.316;18.092;2024-03-08T08:49:53;13.27;;;3.20;;
7426;SDS011;3755;59.316;18.092;2024-03-08T09:05:19;7.97;;;2.97;;
7426;SDS011;3755;59.316;18.092;2024-03-08T09:08:01;9.20;;;3.30;;
7426;SDS011;3755;59.316;18.092;2024-03-08T09:10:42;7.73;;;3.20;;
7426;SDS011;3755;59.316;18.092;2024-03-08T09:13:09;9.20;;;2.50;;
7426;SDS011;3755;59.316;18.092;2024-03-08T09:15:50;7.37;;;3.00;;
7426;SDS011;3755;59.316;18.092;2024-03-08T09:21:52;6.27;;;3.10;;
7426;SDS011;3755;59.316;18.092;2024-03-08T09:24:36;8.20;;;3.00;;
7426;SDS011;3755;59.316;18.092;2024-03-08T09:27:17;10.73;;;3.30;;
7426;SDS011;3755;59.316;18.092;2024-03-08T09:29:48;15.53;;;3.73;;
7426;SDS011;3755;59.316;18.092;2024-03-08T09:32:31;9.53;;;3.30;;
7426;SDS011;3755;59.316;18.092;2024-03-08T09:35:13;12.33;;;3.50;;
7426;SDS011;3755;59.316;18.092;2024-03-08T09:50:58;8.33;;;3.40;;
7426;SDS011;3755;59.316;18.092;2024-03-08T09:53:45;10.83;;;3.03;;
7426;SDS011;3755;59.316;18.092;2024-03-08T09:56:27;7.30;;;2.80;;
7426;SDS011;3755;59.316;18.092;2024-03-08T09:59:13;8.63;;;2.47;;
7426;SDS011;3755;59.316;18.092;2024-03-08T10:01:56;7.10;;;2.87;;
7426;SDS011;3755;59.316;18.092;2024-03-08T10:04:41;9.50;;;2.63;;
7426;SDS011;3755;59.316;18.092;2024-03-08T10:07:25;4.47;;;2.37;;
7426;SDS011;3755;59.316;18.092;2024-03-08T10:10:21;3.83;;;2.03;;
7426;SDS011;3755;59.316;18.092;2024-03-08T10:13:04;3.87;;;2.10;;
7426;SDS011;3755;59.316;18.092;2024-03-08T10:15:46;6.23;;;2.20;;
7426;SDS011;3755;59.316;18.092;2024-03-08T10:18:39;16.00;;;3.17;;
7426;SDS011;3755;59.316;18.092;2024-03-08T10:21:32;5.67;;;2.73;;
7426;SDS011;3755;59.316;18.092;2024-03-08T10:24:24;5.53;;;1.83;;
7426;SDS011;3755;59.316;18.092;2024-03-08T10:27:11;5.30;;;2.10;;
7426;SDS011;3755;59.316;18.092;2024-03-08T10:29:52;10.93;;;3.20;;
7426;SDS011;3755;59.316;18.092;2024-03-08T10:32:34;4.67;;;2.40;;
7426;SDS011;3755;59.316;18.092;2024-03-08T10:35:16;4.50;;;1.80;;
7426;SDS011;3755;59.316;18.092;2024-03-08T10:37:58;7.83;;;2.10;;
7426;SDS011;3755;59.316;18.092;2024-03-08T10:50:25;3.57;;;2.10;;
7426;SDS011;3755;59.316;18.092;2024-03-08T10:53:27;9.00;;;2.60;;
7426;SDS011;3755;59.316;18.092;2024-03-08T10:56:06;2.77;;;1.60;;
7426;SDS011;3755;59.316;18.092;2024-03-08T10:59:12;10.87;;;3.03;;
7426;SDS011;3755;59.316;18.092;2024-03-08T11:01:54;10.33;;;2.47;;
7426;SDS011;3755;59.316;18.092;2024-03-08T11:05:03;4.07;;;1.90;;
7426;SDS011;3755;59.316;18.092;2024-03-08T11:17:58;7.10;;;2.13;;
7426;SDS011;3755;59.316;18.092;2024-03-08T11:20:27;7.47;;;2.03;;
7426;SDS011;3755;59.316;18.092;2024-03-08T11:23:00;6.00;;;2.03;;
7426;SDS011;3755;59.316;18.092;2024-03-08T11:25:45;10.20;;;2.17;;
7426;SDS011;3755;59.316;18.092;2024-03-08T11:31:22;3.47;;;1.77;;
7426;SDS011;3755;59.316;18.092;2024-03-08T11:40:25;4.53;;;1.73;;
7426;SDS011;3755;59.316;18.092;2024-03-08T11:43:09;8.67;;;2.00;;
7426;SDS011;3755;59.316;18.092;2024-03-08T11:48:49;5.67;;;1.93;;
7426;SDS011;3755;59.316;18.092;2024-03-08T11:51:39;8.17;;;2.23;;
7426;SDS011;3755;59.316;18.092;2024-03-08T11:54:23;4.93;;;2.33;;
7426;SDS011;3755;59.316;18.092;2024-03-08T11:57:04;11.97;;;3.00;;
7426;SDS011;3755;59.316;18.092;2024-03-08T11:59:31;6.00;;;1.70;;
7426;SDS011;3755;59.316;18.092;2024-03-08T12:02:01;5.77;;;2.30;;
7426;SDS011;3755;59.316;18.092;2024-03-08T12:04:29;2.97;;;1.47;;
7426;SDS011;3755;59.316;18.092;2024-03-08T12:06:59;4.00;;;1.60;;
7426;SDS011;3755;59.316;18.092;2024-03-08T12:09:29;4.53;;;1.80;;
7426;SDS011;3755;59.316;18.092;2024-03-08T12:11:58;3.47;;;1.50;;
7426;SDS011;3755;59.316;18.092;2024-03-08T12:14:26;7.23;;;2.80;;
7426;SDS011;3755;59.316;18.092;2024-03-08T12:16:53;7.43;;;2.00;;
7426;SDS011;3755;59.316;18.092;2024-03-08T12:19:22;6.03;;;2.00;;
7426;SDS011;3755;59.316;18.092;2024-03-08T12:21:51;2.40;;;1.57;;
7426;SDS011;3755;59.316;18.092;2024-03-08T12:24:18;4.93;;;1.70;;
7426;SDS011;3755;59.316;18.092;2024-03-08T12:26:48;2.77;;;1.70;;
7426;SDS011;3755;59.316;18.092;2024-03-08T12:29:29;3.83;;;1.70;;
7426;SDS011;3755;59.316;18.092;2024-03-08T12:31:58;4.70;;;1.97;;
7426;SDS011;3755;59.316;18.092;2024-03-08T12:34:40;3.30;;;1.50;;
7426;SDS011;3755;59.316;18.092;2024-03-08T12:37:10;2.53;;;1.70;;
7426;SDS011;3755;59.316;18.092;2024-03-08T12:39:40;6.03;;;2.17;;
7426;SDS011;3755;59.316;18.092;2024-03-08T12:42:13;3.80;;;1.87;;
7426;SDS011;3755;59.316;18.092;2024-03-08T12:45:20;4.87;;;1.60;;
7426;SDS011;3755;59.316;18.092;2024-03-08T12:48:12;4.57;;;1.93;;
7426;SDS011;3755;59.316;18.092;2024-03-08T12:50:53;5.83;;;1.70;;
7426;SDS011;3755;59.316;18.092;2024-03-08T12:53:22;5.20;;;1.77;;
7426;SDS011;3755;59.316;18.092;2024-03-08T12:56:06;6.20;;;1.63;;
7426;SDS011;3755;59.316;18.092;2024-03-08T12:58:39;2.27;;;1.80;;
7426;SDS011;3755;59.316;18.092;2024-03-08T13:01:20;15.73;;;2.20;;
7426;SDS011;3755;59.316;18.092;2024-03-08T13:04:03;5.10;;;1.90;;
7426;SDS011;3755;59.316;18.092;2024-03-08T13:06:44;4.07;;;1.70;;
7426;SDS011;3755;59.316;18.092;2024-03-08T13:09:25;7.63;;;2.27;;
7426;SDS011;3755;59.316;18.092;2024-03-08T13:12:02;7.73;;;2.20;;
7426;SDS011;3755;59.316;18.092;2024-03-08T13:14:46;8.57;;;2.33;;
7426;SDS011;3755;59.316;18.092;2024-03-08T13:17:15;2.87;;;1.93;;
7426;SDS011;3755;59.316;18.092;2024-03-08T13:19:56;3.37;;;1.80;;
7426;SDS011;3755;59.316;18.092;2024-03-08T13:22:37;5.30;;;2.13;;
7426;SDS011;3755;59.316;18.092;2024-03-08T13:25:26;5.33;;;2.27;;
7426;SDS011;3755;59.316;18.092;2024-03-08T13:27:53;5.23;;;1.90;;
7426;SDS011;3755;59.316;18.092;2024-03-08T13:30:51;4.10;;;2.03;;
7426;SDS011;3755;59.316;18.092;2024-03-08T13:33:23;4.20;;;2.07;;
7426;SDS011;3755;59.316;18.092;2024-03-08T13:36:05;7.40;;;2.20;;
7426;SDS011;3755;59.316;18.092;2024-03-08T13:38:39;41.07;;;5.17;;
7426;SDS011;3755;59.316;18.092;2024-03-08T13:41:21;5.53;;;1.70;;
7426;SDS011;3755;59.316;18.092;2024-03-08T13:43:50;5.93;;;2.20;;
7426;SDS011;3755;59.316;18.092;2024-03-08T13:46:20;4.20;;;1.93;;
7426;SDS011;3755;59.316;18.092;2024-03-08T13:49:03;10.23;;;2.10;;
7426;SDS011;3755;59.316;18.092;2024-03-08T13:51:37;6.37;;;2.23;;
7426;SDS011;3755;59.316;18.092;2024-03-08T13:54:05;4.13;;;1.77;;
7426;SDS011;3755;59.316;18.092;2024-03-08T13:56:46;5.97;;;1.73;;
7426;SDS011;3755;59.316;18.092;2024-03-08T13:59:14;3.73;;;1.83;;
7426;SDS011;3755;59.316;18.092;2024-03-08T14:01:43;4.70;;;2.27;;
7426;SDS011;3755;59.316;18.092;2024-03-08T14:04:12;3.43;;;2.13;;
7426;SDS011;3755;59.316;18.092;2024-03-08T14:06:41;10.47;;;2.73;;
7426;SDS011;3755;59.316;18.092;2024-03-08T14:09:10;5.30;;;2.30;;
7426;SDS011;3755;59.316;18.092;2024-03-08T14:11:42;5.47;;;2.30;;
7426;SDS011;3755;59.316;18.092;2024-03-08T14:14:10;5.77;;;2.00;;
7426;SDS011;3755;59.316;18.092;2024-03-08T14:16:39;5.00;;;2.10;;
7426;SDS011;3755;59.316;18.092;2024-03-08T14:19:27;6.07;;;1.90;;
7426;SDS011;3755;59.316;18.092;2024-03-08T14:21:56;5.83;;;2.27;;
7426;SDS011;3755;59.316;18.092;2024-03-08T14:24:24;9.53;;;2.30;;
7426;SDS011;3755;59.316;18.092;2024-03-08T14:26:52;5.23;;;1.70;;
7426;SDS011;3755;59.316;18.092;2024-03-08T14:29:20;5.23;;;1.70;;
7426;SDS011;3755;59.316;18.092;2024-03-08T14:32:01;6.80;;;2.10;;
7426;SDS011;3755;59.316;18.092;2024-03-08T14:34:38;4.30;;;1.70;;
7426;SDS011;3755;59.316;18.092;2024-03-08T14:37:06;3.03;;;2.00;;
7426;SDS011;3755;59.316;18.092;2024-03-08T14:39:36;6.37;;;2.10;;
7426;SDS011;3755;59.316;18.092;2024-03-08T14:42:05;15.87;;;2.63;;
7426;SDS011;3755;59.316;18.092;2024-03-08T14:44:55;9.20;;;2.40;;
7426;SDS011;3755;59.316;18.092;2024-03-08T14:47:29;23.90;;;3.97;;
7426;SDS011;3755;59.316;18.092;2024-03-08T14:50:00;7.50;;;2.93;;
7426;SDS011;3755;59.316;18.092;2024-03-08T14:52:41;13.83;;;2.77;;
7426;SDS011;3755;59.316;18.092;2024-03-08T14:55:08;4.40;;;1.57;;
7426;SDS011;3755;59.316;18.092;2024-03-08T14:57:39;4.73;;;1.80;;
7426;SDS011;3755;59.316;18.092;2024-03-08T15:00:07;17.63;;;2.77;;
7426;SDS011;3755;59.316;18.092;2024-03-08T15:02:49;5.00;;;2.40;;
7426;SDS011;3755;59.316;18.092;2024-03-08T15:05:20;11.20;;;2.90;;
7426;SDS011;3755;59.316;18.092;2024-03-08T15:07:51;15.97;;;3.07;;
7426;SDS011;3755;59.316;18.092;2024-03-08T15:10:20;9.17;;;2.83;;
7426;SDS011;3755;59.316;18.092;2024-03-08T15:12:50;9.77;;;3.53;;
7426;SDS011;3755;59.316;18.092;2024-03-08T15:15:21;7.97;;;2.47;;
7426;SDS011;3755;59.316;18.092;2024-03-08T15:17:51;5.47;;;2.20;;
7426;SDS011;3755;59.316;18.092;2024-03-08T15:20:30;4.90;;;2.30;;
7426;SDS011;3755;59.316;18.092;2024-03-08T15:23:00;11.33;;;2.30;;
7426;SDS011;3755;59.316;18.092;2024-03-08T15:25:48;7.00;;;2.53;;
7426;SDS011;3755;59.316;18.092;2024-03-08T15:28:15;5.70;;;1.93;;
7426;SDS011;3755;59.316;18.092;2024-03-08T15:30:45;10.33;;;2.70;;
7426;SDS011;3755;59.316;18.092;2024-03-08T15:33:19;6.70;;;2.70;;
7426;SDS011;3755;59.316;18.092;2024-03-08T15:35:51;7.80;;;2.13;;
7426;SDS011;3755;59.316;18.092;2024-03-08T15:38:24;6.67;;;1.90;;
7426;SDS011;3755;59.316;18.092;2024-03-08T15:40:52;8.47;;;2.27;;
7426;SDS011;3755;59.316;18.092;2024-03-08T15:43:20;7.03;;;2.60;;
7426;SDS011;3755;59.316;18.092;2024-03-08T15:45:48;6.33;;;1.97;;
7426;SDS011;3755;59.316;18.092;2024-03-08T15:48:15;4.00;;;2.20;;
7426;SDS011;3755;59.316;18.092;2024-03-08T15:50:43;5.60;;;2.10;;
7426;SDS011;3755;59.316;18.092;2024-03-08T15:53:13;4.37;;;2.17;;
7426;SDS011;3755;59.316;18.092;2024-03-08T15:55:54;3.80;;;2.60;;
7426;SDS011;3755;59.316;18.092;2024-03-08T15:58:24;4.23;;;2.00;;
7426;SDS011;3755;59.316;18.092;2024-03-08T16:01:05;8.77;;;3.10;;
7426;SDS011;3755;59.316;18.092;2024-03-08T16:03:33;15.30;;;3.03;;
7426;SDS011;3755;59.316;18.092;2024-03-08T16:06:00;5.10;;;2.57;;
7426;SDS011;3755;59.316;18.092;2024-03-08T16:08:32;5.70;;;3.23;;
7426;SDS011;3755;59.316;18.092;2024-03-08T16:11:02;14.17;;;3.10;;
7426;SDS011;3755;59.316;18.092;2024-03-08T16:13:44;7.10;;;2.70;;
7426;SDS011;3755;59.316;18.092;2024-03-08T16:16:12;7.20;;;2.27;;
7426;SDS011;3755;59.316;18.092;2024-03-08T16:18:40;6.13;;;3.20;;
7426;SDS011;3755;59.316;18.092;2024-03-08T16:21:08;6.40;;;2.80;;
7426;SDS011;3755;59.316;18.092;2024-03-08T16:23:55;3.03;;;2.13;;
7426;SDS011;3755;59.316;18.092;2024-03-08T16:26:37;2.93;;;2.07;;
7426;SDS011;3755;59.316;18.092;2024-03-08T16:29:04;9.23;;;1.90;;
7426;SDS011;3755;59.316;18.092;2024-03-08T16:31:34;16.93;;;2.60;;
7426;SDS011;3755;59.316;18.092;2024-03-08T16:34:02;3.33;;;1.60;;
7426;SDS011;3755;59.316;18.092;2024-03-08T16:36:33;2.97;;;1.63;;
7426;SDS011;3755;59.316;18.092;2024-03-08T16:39:05;5.77;;;2.03;;
7426;SDS011;3755;59.316;18.092;2024-03-08T16:41:39;3.43;;;1.73;;
7426;SDS011;3755;59.316;18.092;2024-03-08T16:44:06;11.33;;;4.77;;
7426;SDS011;3755;59.316;18.092;2024-03-08T16:46:47;4.70;;;2.03;;
7426;SDS011;3755;59.316;18.092;2024-03-08T16:49:15;13.40;;;2.27;;
7426;SDS011;3755;59.316;18.092;2024-03-08T16:51:59;6.57;;;2.53;;
7426;SDS011;3755;59.316;18.092;2024-03-08T16:54:29;1.47;;;1.30;;
7426;SDS011;3755;59.316;18.092;2024-03-08T16:56:58;3.83;;;1.60;;
7426;SDS011;3755;59.316;18.092;2024-03-08T16:59:26;1.60;;;1.40;;
7426;SDS011;3755;59.316;18.092;2024-03-08T17:01:54;3.90;;;1.20;;
7426;SDS011;3755;59.316;18.092;2024-03-08T17:04:26;2.83;;;1.53;;
7426;SDS011;3755;59.316;18.092;2024-03-08T17:06:53;4.63;;;1.50;;
7426;SDS011;3755;59.316;18.092;2024-03-08T17:09:30;2.50;;;1.80;;
7426;SDS011;3755;59.316;18.092;2024-03-08T17:11:59;1.47;;;1.10;;
7426;SDS011;3755;59.316;18.092;2024-03-08T17:14:37;2.37;;;1.70;;
7426;SDS011;3755;59.316;18.092;2024-03-08T17:17:05;2.77;;;1.60;;
7426;SDS011;3755;59.316;18.092;2024-03-08T17:19:41;3.40;;;1.80;;
7426;SDS011;3755;59.316;18.092;2024-03-08T17:22:12;2.70;;;1.23;;
7426;SDS011;3755;59.316;18.092;2024-03-08T17:24:42;5.00;;;1.70;;
7426;SDS011;3755;59.316;18.092;2024-03-08T17:27:11;1.90;;;1.70;;
7426;SDS011;3755;59.316;18.092;2024-03-08T17:29:39;2.93;;;1.60;;
7426;SDS011;3755;59.316;18.092;2024-03-08T17:32:06;2.50;;;2.03;;
7426;SDS011;3755;59.316;18.092;2024-03-08T17:34:33;4.13;;;1.77;;